Time;durP1;ratioP1;P1;durP2;ratioP2;P2;SDS_P1;SDS_P2;PMS_P1;PMS_P2;Temp;Humidity;BMP_temperature;BMP_pressure;BME280_temperature;BME280_humidity;BME280_pressure;Samples;Min_cycle;Max_cycle;Signal;HPM_P1;HPM_P2
2023/06/30 00:00:26;;;;;;;5.43;5.23;;;24.00;69.40;;;;;;5028222;28;43897;-71
2023/06/30 00:02:56;;;;;;;5.47;5.27;;;24.10;69.00;;;;;;5025653;28;43431;-72
2023/06/30 00:05:25;;;;;;;5.67;5.47;;;24.20;68.90;;;;;;5036301;28;45680;-70
2023/06/30 00:07:54;;;;;;;5.90;5.50;;;24.20;68.80;;;;;;5026680;28;44410;-71
2023/06/30 00:10:23;;;;;;;5.80;5.60;;;24.20;68.90;;;;;;5033937;28;43458;-70
2023/06/30 00:12:51;;;;;;;5.13;4.93;;;24.10;69.10;;;;;;5034574;28;43385;-71
2023/06/30 00:15:18;;;;;;;5.33;5.13;;;24.10;69.50;;;;;;5036375;28;43914;-71
2023/06/30 00:17:48;;;;;;;5.70;5.50;;;24.00;69.40;;;;;;5053888;28;43377;-70
2023/06/30 00:20:18;;;;;;;5.63;5.43;;;24.00;69.30;;;;;;5035337;28;43483;-71
2023/06/30 00:22:46;;;;;;;5.60;5.40;;;24.00;69.60;;;;;;5052340;28;43432;-70
2023/06/30 00:25:14;;;;;;;5.40;5.20;;;23.90;70.00;;;;;;5048751;28;43839;-70
2023/06/30 00:27:42;;;;;;;5.40;5.10;;;23.90;70.00;;;;;;5053953;28;43452;-70
2023/06/30 00:30:10;;;;;;;5.60;5.40;;;23.90;69.90;;;;;;5036348;28;44019;-70
2023/06/30 00:32:39;;;;;;;5.13;4.93;;;23.90;69.90;;;;;;5054341;28;43466;-71
2023/06/30 00:35:07;;;;;;;5.53;5.33;;;23.90;70.40;;;;;;5023761;28;45628;-70
2023/06/30 00:37:37;;;;;;;5.33;5.13;;;23.90;70.40;;;;;;5055341;28;43548;-70
2023/06/30 00:40:06;;;;;;;5.77;5.57;;;24.00;70.10;;;;;;5049491;28;43467;-70
2023/06/30 00:42:34;;;;;;;4.80;4.60;;;24.10;69.60;;;;;;5045072;28;43976;-70
2023/06/30 00:45:02;;;;;;;5.47;5.27;;;24.10;69.20;;;;;;5057700;28;43793;-70
2023/06/30 00:47:30;;;;;;;5.70;5.50;;;24.20;69.10;;;;;;5024836;28;45003;-70
2023/06/30 00:49:58;;;;;;;4.90;4.80;;;24.10;69.00;;;;;;5051062;28;43702;-70
2023/06/30 00:52:26;;;;;;;5.20;5.10;;;24.10;69.30;;;;;;5054889;28;43469;-70
2023/06/30 00:54:55;;;;;;;4.90;4.70;;;24.00;69.60;;;;;;5036186;28;46120;-71
2023/06/30 00:57:23;;;;;;;5.40;5.20;;;24.00;69.60;;;;;;5048684;28;43435;-70
2023/06/30 00:59:51;;;;;;;5.40;5.20;;;24.00;69.40;;;;;;5033716;28;43434;-70
2023/06/30 01:02:22;;;;;;;5.27;5.07;;;24.00;69.60;;;;;;5046996;28;43507;-71
2023/06/30 01:04:55;;;;;;;5.30;5.10;;;23.90;70.00;;;;;;5024873;28;43820;-70
2023/06/30 01:07:27;;;;;;;5.30;5.10;;;23.90;70.10;;;;;;5055405;28;43402;-70
2023/06/30 01:09:59;;;;;;;5.50;5.30;;;23.90;69.90;;;;;;5035379;28;43553;-69
2023/06/30 01:12:27;;;;;;;5.30;5.10;;;23.90;69.90;;;;;;5033563;28;43547;-70
2023/06/30 01:14:56;;;;;;;5.30;5.10;;;23.90;70.40;;;;;;5058645;28;43608;-70
2023/06/30 01:17:24;;;;;;;5.30;5.03;;;23.90;70.40;;;;;;5023455;28;44470;-70
2023/06/30 01:19:53;;;;;;;5.33;5.13;;;24.00;70.00;;;;;;5031416;28;43454;-70
2023/06/30 01:22:25;;;;;;;5.50;5.30;;;24.10;69.40;;;;;;5027813;28;43792;-69
2023/06/30 01:24:57;;;;;;;4.90;4.70;;;24.20;69.00;;;;;;5051096;28;45906;-70
2023/06/30 01:27:25;;;;;;;5.43;5.23;;;24.30;68.80;;;;;;5034189;28;43480;-70
2023/06/30 01:29:54;;;;;;;5.30;5.10;;;24.30;68.80;;;;;;5034107;28;43454;-70
2023/06/30 01:32:22;;;;;;;5.23;5.03;;;24.20;68.60;;;;;;5049784;28;43443;-70
2023/06/30 01:34:50;;;;;;;5.03;4.90;;;24.20;69.20;;;;;;5028975;28;45999;-70
2023/06/30 01:37:18;;;;;;;5.53;5.23;;;24.10;69.30;;;;;;5030095;28;43431;-70
2023/06/30 01:39:46;;;;;;;5.47;5.27;;;24.10;69.20;;;;;;5025900;28;43424;-70
2023/06/30 01:42:15;;;;;;;4.90;4.70;;;24.10;69.10;;;;;;5034695;28;43536;-70
2023/06/30 01:44:43;;;;;;;5.03;4.93;;;24.00;69.50;;;;;;5029133;28;43939;-70
2023/06/30 01:47:11;;;;;;;5.30;5.10;;;24.00;70.00;;;;;;5032940;28;44756;-70
2023/06/30 01:49:39;;;;;;;5.27;5.07;;;24.00;69.80;;;;;;5034809;28;43583;-70
2023/06/30 01:52:07;;;;;;;5.07;4.87;;;23.90;69.60;;;;;;5045256;28;43513;-71
2023/06/30 01:54:35;;;;;;;5.40;5.20;;;23.90;69.80;;;;;;5031878;28;45605;-70
2023/06/30 01:57:04;;;;;;;5.70;5.50;;;23.90;70.30;;;;;;5045514;28;44926;-70
2023/06/30 01:59:34;;;;;;;5.27;5.07;;;23.90;69.80;;;;;;5025677;28;43402;-70
2023/06/30 02:02:02;;;;;;;5.90;5.70;;;24.00;69.50;;;;;;5031665;28;43366;-71
2023/06/30 02:04:30;;;;;;;5.60;5.40;;;24.10;69.00;;;;;;5035969;28;43913;-71
2023/06/30 02:06:58;;;;;;;5.50;5.30;;;24.20;68.90;;;;;;5029806;28;43412;-70
2023/06/30 02:09:26;;;;;;;4.80;4.60;;;24.20;68.80;;;;;;5037801;28;43459;-70
2023/06/30 02:12:14;;;;;;;5.20;5.00;;;24.20;68.80;;;;;;5028964;28;43422;-70
2023/06/30 02:14:43;;;;;;;5.50;5.30;;;24.10;69.30;;;;;;5025191;28;46132;-72
2023/06/30 02:17:11;;;;;;;5.37;5.17;;;24.10;69.50;;;;;;5043030;28;43434;-70
2023/06/30 02:19:39;;;;;;;4.77;4.67;;;24.00;69.30;;;;;;5050896;28;43963;-71
2023/06/30 02:22:07;;;;;;;5.13;5.03;;;24.00;69.30;;;;;;5053054;28;43380;-70
2023/06/30 02:24:35;;;;;;;5.53;5.27;;;24.00;69.70;;;;;;5046596;28;45585;-70
2023/06/30 02:27:04;;;;;;;5.07;4.97;;;23.90;70.10;;;;;;5045354;28;43865;-70
2023/06/30 02:29:32;;;;;;;5.20;5.03;;;23.90;69.80;;;;;;5059391;28;43429;-70
2023/06/30 02:32:01;;;;;;;5.00;4.80;;;23.90;69.60;;;;;;5050401;28;43531;-70
2023/06/30 02:34:29;;;;;;;5.67;5.47;;;23.90;69.90;;;;;;5051944;28;43624;-70
2023/06/30 02:36:57;;;;;;;5.43;5.23;;;23.90;70.40;;;;;;5042401;28;44151;-70
2023/06/30 02:39:25;;;;;;;5.63;5.43;;;23.90;70.00;;;;;;5030219;28;43440;-71
2023/06/30 02:41:55;;;;;;;5.30;5.13;;;24.00;69.60;;;;;;5036274;28;43622;-70
2023/06/30 02:44:23;;;;;;;5.40;5.20;;;24.10;69.10;;;;;;5040416;28;44011;-70
2023/06/30 02:46:51;;;;;;;5.60;5.40;;;24.20;68.90;;;;;;5039765;28;44832;-70
2023/06/30 02:49:20;;;;;;;5.57;5.37;;;24.20;68.80;;;;;;5052877;28;43457;-70
2023/06/30 02:51:48;;;;;;;5.50;5.30;;;24.20;68.80;;;;;;5031582;28;43906;-70
2023/06/30 02:54:16;;;;;;;5.20;5.00;;;24.10;69.20;;;;;;5040157;28;45968;-70
2023/06/30 02:56:47;;;;;;;5.40;5.20;;;24.10;69.50;;;;;;5039815;28;44408;-70
2023/06/30 02:59:15;;;;;;;5.50;5.30;;;24.10;69.30;;;;;;5040400;28;43440;-70
2023/06/30 03:01:44;;;;;;;5.10;5.00;;;24.00;69.20;;;;;;5035228;28;43447;-70
2023/06/30 03:04:13;;;;;;;5.40;5.20;;;24.00;69.60;;;;;;5059737;28;43815;-71
2023/06/30 03:06:43;;;;;;;5.23;5.03;;;23.90;69.90;;;;;;5037504;28;44591;-69
2023/06/30 03:09:14;;;;;;;5.27;5.07;;;24.00;69.60;;;;;;5028938;28;43452;-73
2023/06/30 03:11:42;;;;;;;5.50;5.30;;;24.00;69.40;;;;;;5039358;28;43554;-72
2023/06/30 03:14:11;;;;;;;5.30;5.17;;;24.10;69.30;;;;;;5034548;28;44629;-71
2023/06/30 03:16:44;;;;;;;5.57;5.27;;;24.00;69.20;;;;;;5044203;28;43981;-70
2023/06/30 03:19:14;;;;;;;5.53;5.33;;;24.00;69.90;;;;;;5037257;28;43454;-69
2023/06/30 03:21:43;;;;;;;5.47;5.27;;;24.00;69.70;;;;;;5032890;28;43528;-70
2023/06/30 03:24:11;;;;;;;5.70;5.43;;;24.00;69.60;;;;;;5028614;28;45714;-69
2023/06/30 03:26:40;;;;;;;6.27;5.97;;;23.90;69.50;;;;;;5059735;28;44988;-69
2023/06/30 03:29:16;;;;;;;5.63;5.43;;;23.90;69.90;;;;;;5050295;28;43431;-70
2023/06/30 03:31:45;;;;;;;5.50;5.30;;;23.90;70.00;;;;;;5032373;28;43413;-70
2023/06/30 03:34:13;;;;;;;5.80;5.60;;;24.00;69.70;;;;;;5054158;28;45699;-70
2023/06/30 03:36:42;;;;;;;5.63;5.33;;;24.10;69.40;;;;;;5036383;28;44366;-70
2023/06/30 03:39:10;;;;;;;5.57;5.37;;;24.20;69.20;;;;;;5043177;28;43486;-70
2023/06/30 03:41:40;;;;;;;5.43;5.20;;;24.20;69.00;;;;;;5055326;28;43460;-69
2023/06/30 03:44:11;;;;;;;5.00;4.90;;;24.20;69.00;;;;;;5043406;28;45766;-71
2023/06/30 03:46:39;;;;;;;5.83;5.63;;;24.10;69.20;;;;;;5046628;28;43925;-69
2023/06/30 03:49:07;;;;;;;5.33;5.13;;;24.10;69.60;;;;;;5046508;28;43393;-69
2023/06/30 03:51:38;;;;;;;5.70;5.40;;;24.00;69.50;;;;;;5035382;28;43929;-70
2023/06/30 03:54:08;;;;;;;5.63;5.43;;;24.00;69.60;;;;;;5030705;28;44944;-70
2023/06/30 03:56:37;;;;;;;6.17;5.83;;;24.00;69.70;;;;;;5032479;28;44782;-70
2023/06/30 03:59:06;;;;;;;6.23;5.83;;;23.90;70.10;;;;;;5049639;28;43488;-69
2023/06/30 04:01:35;;;;;;;5.93;5.63;;;23.90;70.00;;;;;;5032830;28;43384;-70
2023/06/30 04:04:04;;;;;;;7.80;6.50;;;23.90;70.20;;;;;;5059187;28;43615;-70
2023/06/30 04:06:33;;;;;;;18.90;7.53;;;23.90;70.10;;;;;;5027700;28;44542;-70
2023/06/30 04:09:01;;;;;;;19.33;7.70;;;23.90;70.40;;;;;;5022729;28;43435;-70
2023/06/30 04:11:31;;;;;;;17.27;7.40;;;23.90;70.40;;;;;;5048435;28;43524;-70
2023/06/30 04:13:59;;;;;;;16.93;6.90;;;23.90;70.40;;;;;;5050223;28;43749;-71
2023/06/30 04:16:27;;;;;;;14.77;7.83;;;23.90;70.20;;;;;;5045818;28;43532;-70
2023/06/30 04:18:55;;;;;;;21.00;8.50;;;23.90;70.40;;;;;;5052137;28;43447;-70
2023/06/30 04:21:23;;;;;;;16.47;8.70;;;23.80;70.40;;;;;;5050148;28;43404;-70
2023/06/30 04:23:51;;;;;;;15.87;8.70;;;23.90;70.10;;;;;;5050229;28;43764;-70
2023/06/30 04:26:20;;;;;;;15.13;8.13;;;24.00;69.80;;;;;;5033960;28;45874;-70
2023/06/30 04:28:49;;;;;;;15.77;8.67;;;24.20;69.50;;;;;;5036123;28;43537;-72
2023/06/30 04:31:18;;;;;;;16.70;8.83;;;24.30;69.20;;;;;;5046901;28;43420;-71
2023/06/30 04:33:46;;;;;;;15.17;8.90;;;24.30;69.20;;;;;;5050686;28;43599;-70
2023/06/30 04:36:14;;;;;;;15.03;9.37;;;24.20;69.10;;;;;;5043665;28;43413;-70
2023/06/30 04:38:44;;;;;;;16.93;8.60;;;24.10;69.30;;;;;;5047505;28;43424;-70
2023/06/30 04:41:12;;;;;;;14.67;8.90;;;24.10;69.30;;;;;;5055942;28;43460;-69
2023/06/30 04:43:41;;;;;;;14.00;8.50;;;24.10;69.50;;;;;;5038024;28;43612;-69
2023/06/30 04:46:10;;;;;;;14.50;8.70;;;24.00;69.40;;;;;;5029565;28;44825;-70
2023/06/30 04:48:38;;;;;;;12.80;9.23;;;24.00;69.80;;;;;;5048079;28;43451;-70
2023/06/30 04:51:06;;;;;;;11.00;8.27;;;24.00;70.00;;;;;;5048744;28;43458;-70
2023/06/30 04:53:34;;;;;;;17.80;9.60;;;24.00;70.00;;;;;;5044030;28;43958;-71
2023/06/30 04:56:02;;;;;;;13.10;8.53;;;24.00;69.90;;;;;;5042876;28;43620;-70
2023/06/30 04:58:30;;;;;;;14.00;9.23;;;23.90;69.80;;;;;;5046194;28;43423;-70
2023/06/30 05:00:58;;;;;;;12.30;8.90;;;23.90;70.20;;;;;;5050583;28;43385;-70
2023/06/30 05:03:28;;;;;;;14.07;9.40;;;23.90;70.00;;;;;;5049695;28;43732;-70
2023/06/30 05:05:58;;;;;;;15.33;9.00;;;24.00;69.60;;;;;;5031327;28;45033;-70
2023/06/30 05:08:26;;;;;;;13.43;9.03;;;24.10;69.50;;;;;;5059605;28;43929;-71
2023/06/30 05:10:53;;;;;;;14.57;9.37;;;24.30;69.10;;;;;;5058396;28;43403;-70
2023/06/30 05:13:21;;;;;;;14.80;9.23;;;24.30;68.90;;;;;;5038501;28;44660;-70
2023/06/30 05:15:49;;;;;;;13.03;8.40;;;24.30;69.70;;;;;;5061004;28;43449;-70
2023/06/30 05:18:18;;;;;;;11.83;9.03;;;24.20;69.10;;;;;;5061073;28;43432;-70
2023/06/30 05:20:47;;;;;;;10.70;8.60;;;24.10;69.30;;;;;;5055604;28;43387;-70
2023/06/30 05:23:15;;;;;;;9.47;8.33;;;24.10;69.50;;;;;;5047336;28;45702;-71
2023/06/30 05:25:43;;;;;;;11.30;8.90;;;24.10;69.60;;;;;;5063641;28;43372;-70
2023/06/30 05:28:12;;;;;;;10.87;9.03;;;24.00;69.50;;;;;;5049448;28;43441;-70
2023/06/30 05:30:40;;;;;;;9.80;8.63;;;24.00;70.00;;;;;;5055423;28;43451;-70
2023/06/30 05:33:08;;;;;;;9.63;8.33;;;24.00;70.00;;;;;;5061587;28;43854;-70
2023/06/30 05:35:36;;;;;;;10.80;8.83;;;24.00;70.00;;;;;;5052973;28;43402;-70
2023/06/30 05:38:06;;;;;;;10.83;8.53;;;23.90;70.50;;;;;;5039875;28;43456;-70
2023/06/30 05:40:34;;;;;;;9.97;8.87;;;23.90;70.10;;;;;;5056509;28;43379;-70
2023/06/30 05:43:02;;;;;;;9.57;8.53;;;23.90;70.30;;;;;;5064871;28;43875;-70
2023/06/30 05:45:30;;;;;;;8.93;8.00;;;23.90;70.30;;;;;;5048769;28;44697;-70
2023/06/30 05:47:57;;;;;;;9.60;8.60;;;23.90;70.10;;;;;;5068262;28;43404;-70
2023/06/30 05:50:27;;;;;;;12.00;9.37;;;23.90;70.20;;;;;;5061567;28;43380;-70
2023/06/30 05:52:55;;;;;;;9.93;8.63;;;23.80;70.50;;;;;;5059964;28;43903;-70
2023/06/30 05:55:24;;;;;;;10.10;9.20;;;23.90;70.20;;;;;;5064296;28;43433;-70
2023/06/30 05:57:52;;;;;;;9.70;8.80;;;24.00;69.80;;;;;;5033891;28;43436;-71
2023/06/30 06:00:21;;;;;;;9.63;8.60;;;24.10;69.50;;;;;;5019542;28;43574;-71
2023/06/30 06:02:49;;;;;;;9.97;8.97;;;24.20;69.10;;;;;;5039906;28;44692;-70
2023/06/30 06:05:17;;;;;;;10.63;9.00;;;24.20;69.10;;;;;;5048658;28;43859;-70
2023/06/30 06:07:45;;;;;;;9.37;8.37;;;24.20;69.10;;;;;;5038404;28;43403;-70
2023/06/30 06:10:13;;;;;;;9.33;8.37;;;24.20;69.50;;;;;;5029116;28;43454;-70
2023/06/30 06:12:42;;;;;;;11.40;8.80;;;24.10;69.50;;;;;;5046335;28;43761;-70
2023/06/30 06:15:11;;;;;;;9.10;8.20;;;24.10;69.60;;;;;;5041009;28;44530;-70
2023/06/30 06:17:39;;;;;;;8.73;7.80;;;24.10;69.60;;;;;;5065520;28;43388;-70
2023/06/30 06:20:07;;;;;;;8.93;8.13;;;24.00;69.60;;;;;;5041976;28;43543;-71
2023/06/30 06:22:35;;;;;;;9.80;8.80;;;24.00;70.10;;;;;;5056675;28;43607;-70
2023/06/30 06:25:04;;;;;;;9.10;8.27;;;24.00;70.10;;;;;;5046272;28;46190;-70
2023/06/30 06:27:34;;;;;;;9.13;8.23;;;24.00;70.10;;;;;;5061493;28;43985;-70
2023/06/30 06:30:04;;;;;;;8.43;7.73;;;23.90;69.90;;;;;;5059631;28;43554;-70
2023/06/30 06:32:32;;;;;;;9.30;8.23;;;23.90;70.40;;;;;;5048883;28;45731;-70
2023/06/30 06:35:00;;;;;;;8.93;8.10;;;23.90;70.30;;;;;;5062046;28;43420;-72
2023/06/30 06:37:28;;;;;;;9.07;8.27;;;24.00;70.10;;;;;;5060626;28;43382;-69
2023/06/30 06:39:56;;;;;;;9.23;8.17;;;24.10;69.60;;;;;;5056682;28;43423;-70
2023/06/30 06:42:24;;;;;;;7.93;7.33;;;24.20;69.50;;;;;;5044723;28;46017;-71
2023/06/30 06:44:52;;;;;;;9.30;8.43;;;24.20;69.40;;;;;;5063315;28;43360;-70
2023/06/30 06:47:57;;;;;;;8.50;7.70;;;24.20;69.30;;;;;;5059498;28;43491;-69
2023/06/30 06:50:26;;;;;;;8.93;8.03;;;24.10;69.50;;;;;;5051973;28;43939;-70
2023/06/30 06:52:54;;;;;;;9.30;8.20;;;24.10;69.90;;;;;;5052975;28;44046;-70
2023/06/30 06:55:22;;;;;;;8.60;7.90;;;24.00;69.80;;;;;;5059005;28;43936;-70
2023/06/30 06:57:50;;;;;;;8.43;7.73;;;24.00;69.90;;;;;;5050952;28;43376;-70
2023/06/30 07:00:19;;;;;;;8.77;7.97;;;24.00;70.00;;;;;;5056017;28;43881;-70
2023/06/30 07:02:47;;;;;;;8.63;7.90;;;23.90;70.30;;;;;;5059442;28;43915;-70
2023/06/30 07:05:15;;;;;;;8.80;8.03;;;24.00;70.30;;;;;;5060452;28;43931;-70
2023/06/30 07:07:44;;;;;;;8.80;8.00;;;24.00;69.90;;;;;;5062895;28;43825;-70
2023/06/30 07:10:12;;;;;;;8.57;7.77;;;24.00;69.70;;;;;;5064908;28;43466;-70
2023/06/30 07:12:40;;;;;;;8.40;7.60;;;24.10;69.80;;;;;;5046881;28;44707;-70
2023/06/30 07:15:09;;;;;;;8.10;7.50;;;24.00;69.80;;;;;;5046666;28;44394;-69
2023/06/30 07:17:37;;;;;;;7.83;7.33;;;24.00;69.80;;;;;;5062335;28;43588;-69
2023/06/30 07:20:06;;;;;;;8.13;7.53;;;23.90;69.80;;;;;;5065644;28;43464;-70
2023/06/30 07:22:34;;;;;;;9.13;8.37;;;23.90;69.90;;;;;;5062121;28;43987;-70
2023/06/30 07:25:06;;;;;;;9.07;8.20;;;23.80;70.00;;;;;;5063404;28;43543;-70
2023/06/30 07:27:36;;;;;;;8.03;7.40;;;23.80;70.10;;;;;;5044789;28;43404;-69
2023/06/30 07:30:04;;;;;;;8.50;7.80;;;23.80;70.20;;;;;;5046132;28;43601;-70
2023/06/30 07:32:33;;;;;;;8.50;7.80;;;23.70;71.00;;;;;;5061943;28;43607;-70
2023/06/30 07:35:02;;;;;;;8.73;7.93;;;23.80;70.80;;;;;;5064922;28;43452;-70
2023/06/30 07:37:29;;;;;;;8.90;8.20;;;23.90;70.40;;;;;;5061259;28;43342;-70
2023/06/30 07:39:57;;;;;;;8.43;7.77;;;24.10;70.60;;;;;;5063910;28;43349;-70
2023/06/30 07:42:43;;;;;;;9.33;8.53;;;24.30;69.30;;;;;;5061100;28;43805;-71
2023/06/30 07:45:12;;;;;;;9.10;8.30;;;24.50;68.50;;;;;;5063514;28;43436;-70
2023/06/30 07:47:41;;;;;;;8.63;7.85;;;24.80;67.80;;;;;;5047467;28;43384;-70
2023/06/30 07:50:12;;;;;;;8.20;7.60;;;25.00;67.10;;;;;;5047377;28;43610;-70
2023/06/30 07:52:41;;;;;;;8.63;7.85;;;25.20;66.50;;;;;;5057702;28;43620;-70
2023/06/30 07:55:12;;;;;;;7.97;7.35;;;25.30;66.10;;;;;;5062241;28;44072;-70
2023/06/30 07:57:40;;;;;;;8.45;7.85;;;25.40;65.70;;;;;;5059853;28;43407;-70
2023/06/30 08:00:15;;;;;;;8.23;7.68;;;25.50;65.30;;;;;;5033190;28;43847;-70
2023/06/30 08:02:43;;;;;;;7.75;7.25;;;25.60;65.00;;;;;;5031846;28;45978;-70
2023/06/30 08:05:11;;;;;;;8.18;7.50;;;25.60;64.90;;;;;;5059571;28;44784;-72
2023/06/30 08:07:39;;;;;;;7.85;7.25;;;25.40;65.10;;;;;;5046351;28;43403;-70
2023/06/30 08:10:18;;;;;;;8.65;7.95;;;25.30;65.70;;;;;;5049821;28;43392;-69
2023/06/30 08:12:46;;;;;;;8.65;7.95;;;25.00;66.00;;;;;;5053091;28;43694;-70
2023/06/30 08:15:16;;;;;;;9.00;8.30;;;24.90;67.00;;;;;;5058554;28;43582;-69
2023/06/30 08:17:44;;;;;;;9.27;8.55;;;24.80;67.20;;;;;;5055251;28;43445;-70
2023/06/30 08:20:25;;;;;;;9.52;8.73;;;24.70;67.20;;;;;;5047514;28;43461;-71
2023/06/30 08:22:54;;;;;;;8.43;7.87;;;24.50;67.60;;;;;;5048386;28;43939;-70
2023/06/30 08:25:25;;;;;;;8.80;8.10;;;24.40;68.20;;;;;;5049457;28;43492;-70
2023/06/30 08:27:53;;;;;;;8.67;7.97;;;24.40;68.40;;;;;;5048435;28;43419;-71
2023/06/30 08:30:23;;;;;;;9.47;8.03;;;24.30;68.30;;;;;;5055009;28;43511;-72
2023/06/30 08:32:54;;;;;;;8.43;7.93;;;24.30;68.60;;;;;;5057865;28;43715;-70
2023/06/30 08:35:22;;;;;;;9.17;8.47;;;24.20;69.20;;;;;;5040306;28;43403;-70
2023/06/30 08:37:50;;;;;;;9.23;8.63;;;24.20;69.10;;;;;;5042459;28;43423;-70
2023/06/30 08:40:22;;;;;;;8.10;7.50;;;24.30;69.00;;;;;;5044982;28;43500;-70
2023/06/30 08:42:50;;;;;;;8.77;8.07;;;24.40;68.50;;;;;;5045227;28;43602;-69
2023/06/30 08:45:18;;;;;;;8.57;8.07;;;24.50;68.30;;;;;;5063148;28;43427;-69
2023/06/30 08:47:48;;;;;;;9.13;8.40;;;24.50;68.30;;;;;;5028666;28;43594;-69
2023/06/30 08:50:16;;;;;;;8.93;8.33;;;24.40;68.10;;;;;;5059358;28;43499;-70
2023/06/30 08:52:44;;;;;;;8.77;8.13;;;24.30;68.70;;;;;;5040492;28;45380;-69
2023/06/30 08:55:12;;;;;;;9.17;8.57;;;24.30;68.90;;;;;;5050600;28;43738;-69
2023/06/30 08:57:41;;;;;;;8.77;8.27;;;24.30;68.90;;;;;;5039894;28;43469;-70
2023/06/30 09:00:10;;;;;;;8.00;7.57;;;24.20;68.80;;;;;;5044629;28;43535;-70
2023/06/30 09:02:38;;;;;;;8.77;8.07;;;24.10;69.30;;;;;;5046613;28;43847;-70
2023/06/30 09:05:08;;;;;;;8.93;8.33;;;24.10;69.50;;;;;;5040835;28;45078;-70
2023/06/30 09:07:39;;;;;;;8.63;8.03;;;24.10;69.30;;;;;;5054802;28;43425;-70
2023/06/30 09:10:09;;;;;;;8.50;7.90;;;24.00;69.20;;;;;;5053384;28;43529;-70
2023/06/30 09:12:38;;;;;;;8.23;7.73;;;24.00;69.70;;;;;;5051009;28;43795;-70
2023/06/30 09:15:07;;;;;;;7.87;7.37;;;24.00;70.00;;;;;;5048342;28;43547;-70
2023/06/30 09:17:35;;;;;;;8.13;7.57;;;24.10;69.70;;;;;;5053958;28;43615;-70
2023/06/30 09:20:03;;;;;;;8.13;7.53;;;24.20;69.50;;;;;;5052886;28;43379;-70
2023/06/30 09:22:33;;;;;;;7.40;6.90;;;24.30;68.80;;;;;;5057117;28;43897;-70
2023/06/30 09:25:40;;;;;;;7.77;7.20;;;24.30;68.60;;;;;;5054247;28;43879;-70
2023/06/30 09:28:12;;;;;;;7.57;7.17;;;24.30;68.40;;;;;;5046216;28;43448;-71
2023/06/30 09:30:43;;;;;;;7.87;7.27;;;24.30;68.50;;;;;;5050608;28;43412;-71
2023/06/30 09:33:13;;;;;;;7.30;6.80;;;24.20;69.00;;;;;;5056054;28;43936;-70
2023/06/30 09:35:41;;;;;;;7.40;6.97;;;24.10;68.90;;;;;;5033777;28;44929;-71
2023/06/30 09:38:12;;;;;;;7.20;6.80;;;24.10;68.90;;;;;;5053345;28;43589;-71
2023/06/30 09:40:43;;;;;;;7.27;6.87;;;24.00;68.80;;;;;;5047146;28;43488;-71
2023/06/30 09:43:16;;;;;;;7.30;6.90;;;24.00;69.60;;;;;;5027271;28;45568;-71
2023/06/30 09:45:45;;;;;;;6.87;6.57;;;24.00;69.80;;;;;;5046801;28;43476;-71
2023/06/30 09:48:13;;;;;;;6.90;6.40;;;24.00;69.80;;;;;;5044883;28;43490;-73
2023/06/30 09:50:41;;;;;;;7.47;6.60;;;24.00;69.60;;;;;;5030233;28;43575;-71
2023/06/30 09:53:09;;;;;;;6.90;6.40;;;23.90;70.20;;;;;;5045965;28;44006;-72
2023/06/30 09:55:49;;;;;;;6.40;5.90;;;23.90;70.20;;;;;;5029658;28;44680;-71
2023/06/30 09:58:17;;;;;;;9.40;6.20;;;24.00;70.00;;;;;;5046296;28;43479;-71
2023/06/30 10:00:46;;;;;;;10.40;5.83;;;24.10;69.40;;;;;;5045853;28;43533;-72
2023/06/30 10:03:16;;;;;;;7.83;6.37;;;24.30;69.20;;;;;;5032845;28;45480;-71
2023/06/30 10:05:46;;;;;;;10.50;7.00;;;24.30;69.10;;;;;;5053867;28;44712;-71
2023/06/30 10:08:14;;;;;;;9.87;6.17;;;24.30;69.10;;;;;;5046383;28;43550;-71
2023/06/30 10:10:43;;;;;;;8.00;6.07;;;24.20;69.20;;;;;;5047687;28;44083;-71
2023/06/30 10:13:13;;;;;;;7.40;5.77;;;24.20;69.60;;;;;;5033797;28;45887;-71
2023/06/30 10:15:41;;;;;;;7.17;5.63;;;24.10;69.20;;;;;;5046574;28;43403;-71
2023/06/30 10:18:11;;;;;;;5.77;5.40;;;24.10;69.60;;;;;;5048551;28;43414;-71
2023/06/30 10:20:39;;;;;;;6.37;5.97;;;24.10;69.50;;;;;;5049702;28;43418;-73
2023/06/30 10:23:16;;;;;;;10.80;5.97;;;24.00;70.00;;;;;;5029932;28;45795;-70
2023/06/30 10:25:44;;;;;;;5.73;5.23;;;24.00;70.10;;;;;;5048531;28;44448;-70
2023/06/30 10:28:14;;;;;;;5.53;5.13;;;24.00;69.90;;;;;;5047907;28;43396;-70
2023/06/30 10:30:42;;;;;;;6.07;5.40;;;24.00;69.80;;;;;;5032825;28;43480;-71
2023/06/30 10:33:10;;;;;;;5.70;5.10;;;23.90;70.20;;;;;;5032011;28;44097;-70
2023/06/30 10:35:38;;;;;;;5.53;5.10;;;24.00;70.30;;;;;;5031805;28;45000;-70
2023/06/30 10:38:06;;;;;;;5.63;5.03;;;24.00;69.70;;;;;;5044356;28;43636;-70
2023/06/30 10:40:34;;;;;;;6.20;5.10;;;24.20;69.60;;;;;;5055171;28;44210;-72
2023/06/30 10:43:04;;;;;;;5.03;4.70;;;24.20;69.20;;;;;;5035685;28;45995;-70
2023/06/30 10:45:34;;;;;;;5.03;4.63;;;24.20;69.20;;;;;;5049643;28;43475;-70
2023/06/30 10:48:09;;;;;;;5.03;4.60;;;24.20;69.20;;;;;;5052176;28;43432;-70
2023/06/30 10:50:41;;;;;;;5.13;4.73;;;24.10;69.60;;;;;;5051388;28;43475;-71
2023/06/30 10:53:09;;;;;;;5.37;4.87;;;24.10;69.60;;;;;;5049646;28;43609;-70
2023/06/30 10:55:37;;;;;;;4.93;4.63;;;24.10;69.70;;;;;;5051703;28;43518;-71
2023/06/30 10:58:07;;;;;;;5.10;4.67;;;24.10;69.50;;;;;;5048054;28;43515;-70
2023/06/30 11:00:37;;;;;;;4.83;4.57;;;24.00;69.90;;;;;;5051043;28;43550;-70
2023/06/30 11:03:06;;;;;;;4.73;4.43;;;24.00;70.20;;;;;;5051645;28;43620;-71
2023/06/30 11:05:34;;;;;;;4.90;4.57;;;24.10;70.00;;;;;;5051242;28;43531;-71
2023/06/30 11:08:06;;;;;;;4.53;4.33;;;24.10;69.80;;;;;;5057120;28;43459;-71
2023/06/30 11:10:36;;;;;;;5.00;4.60;;;24.10;69.70;;;;;;5048715;28;43571;-71
2023/06/30 11:13:05;;;;;;;3.87;3.77;;;24.10;69.50;;;;;;5048973;28;45697;-70
2023/06/30 11:15:39;;;;;;;4.77;4.23;;;24.10;70.10;;;;;;5051085;28;44361;-70
2023/06/30 11:18:11;;;;;;;4.07;3.97;;;24.10;70.10;;;;;;5050245;28;43470;-70
2023/06/30 11:20:39;;;;;;;4.30;4.10;;;24.10;70.00;;;;;;5050659;28;44098;-70
2023/06/30 11:23:18;;;;;;;4.17;3.87;;;24.00;69.70;;;;;;5050618;28;45325;-70
2023/06/30 11:25:46;;;;;;;4.30;4.10;;;24.00;70.00;;;;;;5035592;28;45146;-70
2023/06/30 11:28:14;;;;;;;4.23;3.83;;;24.00;70.30;;;;;;5033761;28;43404;-71
2023/06/30 11:30:43;;;;;;;4.63;4.33;;;24.10;70.10;;;;;;5058643;28;43504;-71
2023/06/30 11:33:11;;;;;;;3.97;3.87;;;24.10;69.70;;;;;;5053966;28;43596;-70
2023/06/30 11:35:39;;;;;;;4.03;3.73;;;24.20;69.40;;;;;;5055743;28;43400;-70
2023/06/30 11:38:08;;;;;;;4.30;4.00;;;24.30;69.50;;;;;;5062113;28;43390;-70
2023/06/30 11:40:44;;;;;;;4.77;3.90;;;24.20;69.30;;;;;;5045930;28;43460;-70
2023/06/30 11:43:13;;;;;;;3.70;3.53;;;24.20;69.40;;;;;;5054833;28;43752;-72
2023/06/30 11:45:41;;;;;;;3.80;3.70;;;24.10;70.10;;;;;;5054155;28;43511;-71
2023/06/30 11:48:12;;;;;;;3.43;3.33;;;24.10;70.10;;;;;;5055422;28;43492;-72
2023/06/30 11:50:40;;;;;;;4.20;4.07;;;24.10;70.10;;;;;;5045954;28;43456;-73
2023/06/30 11:53:08;;;;;;;3.70;3.60;;;24.00;69.90;;;;;;5023058;28;45122;-70
2023/06/30 11:55:36;;;;;;;3.60;3.50;;;24.00;70.60;;;;;;5049201;28;43444;-70
2023/06/30 11:58:08;;;;;;;3.73;3.63;;;24.00;70.60;;;;;;5044757;28;43394;-70
2023/06/30 12:00:36;;;;;;;3.60;3.50;;;24.00;70.60;;;;;;5058249;28;43419;-70
2023/06/30 12:03:05;;;;;;;3.47;3.37;;;24.00;70.30;;;;;;5061646;28;43616;-70
2023/06/30 12:05:41;;;;;;;3.80;3.60;;;23.90;70.60;;;;;;5052844;28;43412;-70
2023/06/30 12:08:10;;;;;;;3.93;3.57;;;23.90;70.90;;;;;;5054397;28;43426;-69
2023/06/30 12:10:39;;;;;;;3.40;3.30;;;24.00;70.80;;;;;;5065861;28;43460;-69
2023/06/30 12:13:07;;;;;;;3.67;3.57;;;24.10;70.40;;;;;;5061999;28;43768;-70
2023/06/30 12:15:36;;;;;;;3.33;3.23;;;24.20;70.10;;;;;;5067363;28;43675;-70
2023/06/30 12:18:05;;;;;;;3.20;3.10;;;24.20;69.90;;;;;;5059507;28;43452;-70
2023/06/30 12:20:36;;;;;;;3.60;3.50;;;24.20;69.80;;;;;;5039390;28;43429;-71
2023/06/30 12:23:04;;;;;;;3.50;3.40;;;24.20;69.80;;;;;;5064111;28;45677;-70
2023/06/30 12:25:33;;;;;;;3.40;3.30;;;24.10;70.20;;;;;;5059246;28;43307;-70
2023/06/30 12:28:03;;;;;;;3.40;3.30;;;24.10;70.00;;;;;;5034126;28;43551;-70
2023/06/30 12:30:31;;;;;;;3.47;3.37;;;24.10;70.20;;;;;;5053273;28;43452;-71
2023/06/30 12:33:00;;;;;;;3.37;3.27;;;24.00;69.40;;;;;;5062804;28;43666;-71
2023/06/30 12:35:29;;;;;;;3.40;3.30;;;24.00;70.60;;;;;;5043779;28;43451;-70
2023/06/30 12:37:59;;;;;;;3.50;3.40;;;24.00;70.70;;;;;;5031409;28;43433;-72
2023/06/30 12:40:28;;;;;;;3.17;3.07;;;24.00;70.50;;;;;;5051760;28;43713;-70
2023/06/30 12:42:56;;;;;;;3.33;3.13;;;23.90;70.10;;;;;;5036148;28;45684;-70
2023/06/30 12:45:24;;;;;;;3.00;2.90;;;23.90;70.40;;;;;;5060317;28;43400;-70
2023/06/30 12:47:52;;;;;;;3.63;3.43;;;23.90;70.90;;;;;;5040818;28;43495;-71
2023/06/30 12:50:20;;;;;;;3.40;3.30;;;24.00;70.70;;;;;;5056895;28;43469;-71
2023/06/30 12:52:48;;;;;;;3.67;3.47;;;24.00;70.30;;;;;;5037908;28;45861;-70
2023/06/30 12:55:21;;;;;;;3.57;3.47;;;24.10;69.80;;;;;;5054428;28;43365;-70